Time;durP1;ratioP1;P1;durP2;ratioP2;P2;SDS_P1;SDS_P2;PMS_P1;PMS_P2;Temp;Humidity;BMP_temperature;BMP_pressure;BME280_temperature;BME280_humidity;BME280_pressure;Samples;Min_cycle;Max_cycle;Signal;HPM_P1;HPM_P2
2021/08/26 00:00:32;;;;;;;8.10;2.75;;;;;;;;;;5007403;28;20308;-70
2021/08/26 00:06:00;;;;;;;11.18;2.85;;;;;;;;;;5005764;28;20201;-70
2021/08/26 00:08:25;;;;;;;11.30;3.20;;;;;;;;;;4998009;28;20289;-72
2021/08/26 00:10:54;;;;;;;9.68;3.17;;;;;;;;;;5008918;28;20290;-69
2021/08/26 00:13:21;;;;;;;13.77;3.10;;;;;;;;;;4994444;28;20253;-70
2021/08/26 00:15:47;;;;;;;15.20;3.70;;;;;;;;;;5009023;28;20488;-70
2021/08/26 00:18:16;;;;;;;11.00;3.22;;;;;;;;;;5007252;28;20193;-70
2021/08/26 00:20:44;;;;;;;11.68;3.30;;;;;;;;;;4999389;28;20665;-71
2021/08/26 00:23:09;;;;;;;8.38;3.00;;;;;;;;;;5001745;28;20293;-71
2021/08/26 00:25:36;;;;;;;18.35;3.38;;;;;;;;;;4998691;28;20278;-71
2021/08/26 00:28:01;;;;;;;10.65;3.45;;;;;;;;;;5007555;28;20178;-70
2021/08/26 00:30:27;;;;;;;13.75;2.92;;;;;;;;;;5002715;28;20190;-72
2021/08/26 00:32:52;;;;;;;15.40;3.38;;;;;;;;;;5008768;28;20233;-72
2021/08/26 00:35:17;;;;;;;10.50;3.55;;;;;;;;;;4995003;28;20178;-70
2021/08/26 00:37:43;;;;;;;8.13;3.75;;;;;;;;;;5006775;28;20490;-70
2021/08/26 00:40:08;;;;;;;13.68;4.03;;;;;;;;;;4997386;28;20544;-71
2021/08/26 00:42:35;;;;;;;14.52;3.60;;;;;;;;;;5005483;28;20654;-70
2021/08/26 00:45:02;;;;;;;18.83;3.63;;;;;;;;;;4995176;28;20199;-70
2021/08/26 00:47:27;;;;;;;14.18;3.30;;;;;;;;;;5005129;28;20205;-70
2021/08/26 00:49:54;;;;;;;13.30;3.75;;;;;;;;;;5003334;28;20187;-70
2021/08/26 00:52:20;;;;;;;15.75;4.20;;;;;;;;;;4996640;28;20201;-70
2021/08/26 00:54:46;;;;;;;15.50;4.10;;;;;;;;;;5007373;28;20318;-71
2021/08/26 00:57:12;;;;;;;14.98;3.92;;;;;;;;;;4995310;28;20273;-71
2021/08/26 00:59:37;;;;;;;18.98;3.58;;;;;;;;;;5008770;28;20230;-69
2021/08/26 01:02:13;;;;;;;13.85;3.97;;;;;;;;;;5002468;28;20260;-69
2021/08/26 01:04:49;;;;;;;16.58;3.85;;;;;;;;;;5005516;28;20236;-70
2021/08/26 01:07:36;;;;;;;18.85;3.60;;;;;;;;;;4998975;28;20227;-70
2021/08/26 01:10:05;;;;;;;13.20;3.97;;;;;;;;;;5005784;28;20607;-70
2021/08/26 01:12:30;;;;;;;15.00;4.38;;;;;;;;;;4999262;28;20191;-69
2021/08/26 01:14:56;;;;;;;21.55;4.30;;;;;;;;;;5003697;28;20221;-72
2021/08/26 01:17:26;;;;;;;18.70;3.70;;;;;;;;;;4997199;28;20194;-71
2021/08/26 01:19:53;;;;;;;15.50;3.35;;;;;;;;;;5003435;28;20215;-68
2021/08/26 01:22:19;;;;;;;19.30;3.75;;;;;;;;;;4998122;28;20194;-70
2021/08/26 01:24:52;;;;;;;27.90;4.85;;;;;;;;;;5002934;28;20195;-70
2021/08/26 01:27:18;;;;;;;17.52;4.00;;;;;;;;;;4998044;28;20546;-70
2021/08/26 01:29:47;;;;;;;16.98;3.95;;;;;;;;;;5004499;28;20179;-70
2021/08/26 01:32:22;;;;;;;20.02;4.38;;;;;;;;;;5004317;28;20198;-70
2021/08/26 01:34:51;;;;;;;17.35;4.32;;;;;;;;;;5003089;28;20329;-70
2021/08/26 01:37:18;;;;;;;19.30;4.43;;;;;;;;;;5006831;28;20194;-70
2021/08/26 01:39:47;;;;;;;17.65;4.25;;;;;;;;;;4994509;28;20229;-70
2021/08/26 01:42:13;;;;;;;15.68;3.92;;;;;;;;;;5006125;28;20681;-70
2021/08/26 01:44:38;;;;;;;16.77;4.25;;;;;;;;;;4993468;28;20187;-69
2021/08/26 01:47:09;;;;;;;15.25;3.85;;;;;;;;;;5001037;28;20516;-69
2021/08/26 01:49:34;;;;;;;14.93;4.57;;;;;;;;;;4994566;28;21035;-69
2021/08/26 01:51:59;;;;;;;23.65;4.75;;;;;;;;;;5006128;28;20224;-69
2021/08/26 01:54:25;;;;;;;20.23;4.25;;;;;;;;;;4975784;28;20197;-69
2021/08/26 01:56:50;;;;;;;21.15;5.65;;;;;;;;;;4999052;28;20223;-69
2021/08/26 01:59:15;;;;;;;16.20;4.35;;;;;;;;;;4989927;28;20641;-69
2021/08/26 02:01:41;;;;;;;16.98;3.90;;;;;;;;;;5006671;28;20222;-69
2021/08/26 02:04:08;;;;;;;20.98;4.30;;;;;;;;;;4993013;28;20327;-69
2021/08/26 02:06:33;;;;;;;17.65;4.25;;;;;;;;;;5006753;28;20202;-69
2021/08/26 02:08:58;;;;;;;19.42;3.88;;;;;;;;;;4997370;28;20190;-69
2021/08/26 02:11:24;;;;;;;26.65;4.50;;;;;;;;;;4989625;28;20205;-68
2021/08/26 02:13:49;;;;;;;15.65;4.20;;;;;;;;;;4997002;28;20192;-69
2021/08/26 02:16:15;;;;;;;18.90;4.13;;;;;;;;;;4988538;28;20194;-68
2021/08/26 02:18:44;;;;;;;21.10;4.78;;;;;;;;;;5004130;28;20189;-68
2021/08/26 02:21:10;;;;;;;17.25;4.00;;;;;;;;;;4990144;28;20198;-69
2021/08/26 02:23:35;;;;;;;17.98;3.90;;;;;;;;;;5002160;28;20221;-69
2021/08/26 02:26:01;;;;;;;19.08;3.70;;;;;;;;;;4990957;28;20290;-69
2021/08/26 02:28:26;;;;;;;13.98;3.67;;;;;;;;;;5001627;28;20189;-70
2021/08/26 02:30:51;;;;;;;23.55;4.60;;;;;;;;;;4996364;28;20202;-70
2021/08/26 02:33:17;;;;;;;16.27;4.28;;;;;;;;;;5006622;28;20656;-70
2021/08/26 02:35:42;;;;;;;21.15;4.18;;;;;;;;;;4998734;28;20191;-69
2021/08/26 02:38:08;;;;;;;12.35;3.88;;;;;;;;;;5005586;28;20179;-69
2021/08/26 02:40:33;;;;;;;21.85;4.40;;;;;;;;;;5013822;28;20529;-70
2021/08/26 02:42:58;;;;;;;19.23;3.80;;;;;;;;;;4999811;28;20249;-69
2021/08/26 02:45:23;;;;;;;19.15;4.25;;;;;;;;;;5008939;28;20525;-69
2021/08/26 02:47:49;;;;;;;19.83;3.55;;;;;;;;;;5001712;28;20217;-69
2021/08/26 02:50:14;;;;;;;20.60;4.35;;;;;;;;;;5008046;28;20549;-69
2021/08/26 02:52:39;;;;;;;16.23;4.18;;;;;;;;;;5000595;28;20199;-69
2021/08/26 02:55:05;;;;;;;18.08;4.32;;;;;;;;;;5008043;28;20198;-70
2021/08/26 02:57:30;;;;;;;22.00;4.38;;;;;;;;;;4999968;28;20195;-70
2021/08/26 02:59:56;;;;;;;18.75;3.72;;;;;;;;;;5006544;28;20226;-70
2021/08/26 03:02:21;;;;;;;20.42;3.92;;;;;;;;;;4997990;28;20681;-70
2021/08/26 03:04:46;;;;;;;20.25;4.60;;;;;;;;;;5006506;28;20184;-70
2021/08/26 03:07:12;;;;;;;18.83;3.63;;;;;;;;;;4999591;28;20187;-71
2021/08/26 03:09:37;;;;;;;14.50;3.70;;;;;;;;;;5006167;28;20202;-70
2021/08/26 03:12:05;;;;;;;20.90;4.30;;;;;;;;;;5006085;28;20186;-70
2021/08/26 03:14:31;;;;;;;17.88;3.72;;;;;;;;;;4998368;28;20186;-69
2021/08/26 03:16:57;;;;;;;18.35;3.72;;;;;;;;;;5011808;28;20594;-70
2021/08/26 03:19:22;;;;;;;18.30;3.60;;;;;;;;;;4997257;28;20278;-69
2021/08/26 03:21:47;;;;;;;22.73;4.25;;;;;;;;;;5005423;28;20242;-70
2021/08/26 03:24:13;;;;;;;15.07;3.80;;;;;;;;;;4991963;28;20221;-71
2021/08/26 03:26:38;;;;;;;15.18;3.30;;;;;;;;;;5003637;28;20230;-70
2021/08/26 03:29:03;;;;;;;17.20;4.00;;;;;;;;;;4992937;28;20225;-70
2021/08/26 03:31:29;;;;;;;18.20;3.78;;;;;;;;;;5016625;28;20210;-70
2021/08/26 03:33:54;;;;;;;22.42;3.80;;;;;;;;;;4997194;28;20245;-70
2021/08/26 03:36:19;;;;;;;20.50;3.75;;;;;;;;;;5008695;28;20646;-69
2021/08/26 03:38:45;;;;;;;18.75;3.72;;;;;;;;;;4998338;28;20214;-70
2021/08/26 03:41:10;;;;;;;17.73;3.35;;;;;;;;;;5011187;28;20261;-70
2021/08/26 03:43:35;;;;;;;17.70;3.17;;;;;;;;;;5003734;28;20214;-70
2021/08/26 03:46:01;;;;;;;10.70;2.85;;;;;;;;;;4999049;28;20195;-70
2021/08/26 03:48:26;;;;;;;17.60;3.45;;;;;;;;;;5006713;28;20743;-71
2021/08/26 03:50:51;;;;;;;15.82;3.42;;;;;;;;;;4998631;28;20288;-70
2021/08/26 03:53:17;;;;;;;14.02;3.38;;;;;;;;;;5005467;28;20194;-70
2021/08/26 03:55:42;;;;;;;10.25;2.80;;;;;;;;;;5000484;28;20199;-70
2021/08/26 03:58:07;;;;;;;11.52;2.45;;;;;;;;;;5003367;28;20241;-69
2021/08/26 04:00:33;;;;;;;9.52;2.70;;;;;;;;;;4999830;28;20697;-70
2021/08/26 04:02:58;;;;;;;18.83;3.75;;;;;;;;;;5008360;28;20207;-70
2021/08/26 04:05:23;;;;;;;12.48;3.30;;;;;;;;;;4998944;28;20191;-70
2021/08/26 04:07:49;;;;;;;19.33;3.50;;;;;;;;;;5008353;28;20229;-70
2021/08/26 04:10:14;;;;;;;16.55;3.20;;;;;;;;;;4996762;28;20189;-69
2021/08/26 04:12:39;;;;;;;15.48;3.80;;;;;;;;;;5001773;28;20195;-69
2021/08/26 04:15:07;;;;;;;16.50;3.40;;;;;;;;;;4999014;28;20186;-72
2021/08/26 04:17:33;;;;;;;14.55;3.83;;;;;;;;;;4992661;28;20332;-71
2021/08/26 04:19:58;;;;;;;14.65;3.15;;;;;;;;;;5001676;28;20627;-68
2021/08/26 04:22:23;;;;;;;14.20;2.92;;;;;;;;;;4989841;28;20708;-69
2021/08/26 04:24:49;;;;;;;16.27;2.97;;;;;;;;;;5005195;28;20183;-70
2021/08/26 04:27:14;;;;;;;12.32;3.22;;;;;;;;;;4996557;28;20270;-70
2021/08/26 04:29:39;;;;;;;12.35;2.50;;;;;;;;;;5004380;28;20332;-70
2021/08/26 04:32:05;;;;;;;12.05;2.60;;;;;;;;;;4996680;28;20236;-70
2021/08/26 04:34:31;;;;;;;16.20;3.13;;;;;;;;;;5005547;28;20191;-69
2021/08/26 04:36:56;;;;;;;14.55;2.88;;;;;;;;;;4994889;28;20349;-72
2021/08/26 04:39:21;;;;;;;11.15;2.35;;;;;;;;;;5003904;28;20305;-70
2021/08/26 04:41:47;;;;;;;19.02;2.95;;;;;;;;;;5000761;28;20210;-70
2021/08/26 04:44:12;;;;;;;16.08;3.95;;;;;;;;;;5003087;28;20210;-71
2021/08/26 04:46:37;;;;;;;13.13;2.70;;;;;;;;;;5000128;28;20438;-70
2021/08/26 04:49:03;;;;;;;15.35;2.78;;;;;;;;;;4996620;28;20199;-70
2021/08/26 04:51:28;;;;;;;13.55;3.22;;;;;;;;;;5003733;28;20201;-70
2021/08/26 04:53:53;;;;;;;16.02;2.88;;;;;;;;;;4999167;28;20618;-70
2021/08/26 04:56:19;;;;;;;15.63;3.22;;;;;;;;;;4998123;28;20195;-70
2021/08/26 04:58:44;;;;;;;11.63;3.65;;;;;;;;;;4997120;28;20198;-70
2021/08/26 05:01:09;;;;;;;17.77;2.70;;;;;;;;;;4999438;28;20229;-69
2021/08/26 05:03:35;;;;;;;16.25;4.00;;;;;;;;;;5000946;28;20266;-70
2021/08/26 05:06:04;;;;;;;16.67;2.83;;;;;;;;;;5002941;28;20198;-70
2021/08/26 05:08:30;;;;;;;11.05;2.72;;;;;;;;;;4998865;28;20547;-70
2021/08/26 05:10:55;;;;;;;13.57;2.75;;;;;;;;;;5004304;28;20194;-71
2021/08/26 05:13:20;;;;;;;18.58;3.42;;;;;;;;;;5001022;28;20186;-71
2021/08/26 05:15:46;;;;;;;12.15;2.78;;;;;;;;;;4999878;28;20220;-70
2021/08/26 05:18:11;;;;;;;13.45;3.67;;;;;;;;;;5006295;28;20267;-70
2021/08/26 05:20:37;;;;;;;16.30;3.40;;;;;;;;;;4996760;28;20389;-71
2021/08/26 05:23:02;;;;;;;14.02;2.90;;;;;;;;;;5005814;28;20201;-70
2021/08/26 05:25:27;;;;;;;14.55;3.38;;;;;;;;;;4991806;28;20191;-70
2021/08/26 05:27:53;;;;;;;14.40;3.78;;;;;;;;;;5009665;28;20179;-71
2021/08/26 05:30:18;;;;;;;17.38;3.10;;;;;;;;;;4996443;28;20190;-70
2021/08/26 05:32:44;;;;;;;16.98;3.03;;;;;;;;;;5004305;28;20226;-69
2021/08/26 05:35:10;;;;;;;13.90;3.10;;;;;;;;;;4994633;28;20194;-70
2021/08/26 05:37:35;;;;;;;19.27;3.55;;;;;;;;;;5007688;28;20642;-70
2021/08/26 05:40:00;;;;;;;12.52;2.95;;;;;;;;;;4999814;28;20256;-69
2021/08/26 05:42:26;;;;;;;17.02;3.22;;;;;;;;;;5005413;28;20650;-69
2021/08/26 05:44:52;;;;;;;19.92;3.47;;;;;;;;;;4995690;28;20622;-69
2021/08/26 05:47:17;;;;;;;13.77;3.20;;;;;;;;;;5004366;28;20558;-69
2021/08/26 05:49:43;;;;;;;13.70;3.13;;;;;;;;;;5004014;28;20190;-69
2021/08/26 05:52:08;;;;;;;17.63;2.95;;;;;;;;;;4996509;28;20183;-70
2021/08/26 05:54:34;;;;;;;15.82;3.25;;;;;;;;;;5001772;28;20261;-69
2021/08/26 05:56:59;;;;;;;14.20;3.00;;;;;;;;;;4997366;28;20191;-70
2021/08/26 05:59:25;;;;;;;12.65;3.03;;;;;;;;;;5001987;28;20266;-69
2021/08/26 06:01:51;;;;;;;12.32;2.85;;;;;;;;;;4996241;28;20209;-70
2021/08/26 06:04:17;;;;;;;12.43;2.78;;;;;;;;;;4999479;28;20256;-69
2021/08/26 06:06:42;;;;;;;14.02;2.35;;;;;;;;;;4995180;28;20704;-69
2021/08/26 06:09:07;;;;;;;13.93;2.28;;;;;;;;;;5002305;28;20190;-70
2021/08/26 06:11:33;;;;;;;14.98;2.63;;;;;;;;;;4995472;28;20297;-69
2021/08/26 06:13:58;;;;;;;9.63;2.10;;;;;;;;;;4997992;28;20176;-70
2021/08/26 06:16:23;;;;;;;11.20;2.40;;;;;;;;;;5004974;28;20274;-69
2021/08/26 06:18:49;;;;;;;11.77;2.30;;;;;;;;;;4990346;28;20193;-70
2021/08/26 06:21:16;;;;;;;11.95;2.40;;;;;;;;;;5002845;28;20274;-70
2021/08/26 06:23:42;;;;;;;15.57;2.35;;;;;;;;;;4992589;28;20670;-69
2021/08/26 06:26:07;;;;;;;10.45;2.33;;;;;;;;;;4999667;28;20248;-69
2021/08/26 06:28:32;;;;;;;11.25;2.83;;;;;;;;;;4991445;28;20421;-69
2021/08/26 06:30:58;;;;;;;9.98;2.72;;;;;;;;;;5003475;28;20489;-70
2021/08/26 06:33:23;;;;;;;9.20;2.10;;;;;;;;;;4992074;28;20551;-70
2021/08/26 06:35:48;;;;;;;10.05;2.30;;;;;;;;;;5002076;28;20213;-70
2021/08/26 06:38:14;;;;;;;10.23;2.38;;;;;;;;;;4988811;28;20642;-70
2021/08/26 06:40:39;;;;;;;13.73;3.17;;;;;;;;;;5003543;28;20197;-70
2021/08/26 06:43:04;;;;;;;17.73;2.80;;;;;;;;;;4993128;28;20568;-70
2021/08/26 06:45:30;;;;;;;13.93;2.95;;;;;;;;;;5004091;28;20194;-70
2021/08/26 06:47:55;;;;;;;11.88;2.92;;;;;;;;;;5002468;28;20547;-70
2021/08/26 06:50:20;;;;;;;10.98;2.88;;;;;;;;;;4990915;28;20178;-71
2021/08/26 06:52:46;;;;;;;10.65;2.97;;;;;;;;;;5001501;28;20721;-71
2021/08/26 06:55:11;;;;;;;8.90;2.67;;;;;;;;;;4991676;28;20307;-69
2021/08/26 06:57:36;;;;;;;14.30;2.72;;;;;;;;;;5003449;28;20597;-69
2021/08/26 07:00:04;;;;;;;11.80;3.38;;;;;;;;;;4994973;28;20648;-70
2021/08/26 07:02:29;;;;;;;9.38;2.70;;;;;;;;;;5004112;28;20245;-69
2021/08/26 07:04:54;;;;;;;13.20;2.55;;;;;;;;;;4993540;28;20217;-70
2021/08/26 07:07:20;;;;;;;14.85;2.97;;;;;;;;;;5002545;28;20183;-70
2021/08/26 07:09:45;;;;;;;14.65;3.30;;;;;;;;;;4998797;28;20186;-69
2021/08/26 07:12:10;;;;;;;13.70;2.85;;;;;;;;;;5000470;28;20184;-70
2021/08/26 07:14:36;;;;;;;14.40;3.25;;;;;;;;;;4998301;28;20222;-69
2021/08/26 07:17:01;;;;;;;12.73;3.47;;;;;;;;;;5001404;28;20266;-70
2021/08/26 07:19:27;;;;;;;11.90;3.10;;;;;;;;;;5001785;28;21347;-70
2021/08/26 07:21:52;;;;;;;13.45;3.53;;;;;;;;;;4995165;28;20680;-72
2021/08/26 07:24:17;;;;;;;12.95;2.67;;;;;;;;;;5007605;28;20697;-70
2021/08/26 07:26:43;;;;;;;14.88;2.88;;;;;;;;;;4996999;28;20623;-70
2021/08/26 07:29:09;;;;;;;14.57;3.50;;;;;;;;;;5008254;28;20190;-72
2021/08/26 07:31:35;;;;;;;13.25;3.38;;;;;;;;;;4996781;28;20194;-69
2021/08/26 07:34:00;;;;;;;14.05;3.70;;;;;;;;;;5005677;28;20266;-70
2021/08/26 07:36:25;;;;;;;10.52;3.20;;;;;;;;;;4998863;28;20200;-71
2021/08/26 07:38:51;;;;;;;12.77;3.17;;;;;;;;;;5005977;28;20193;-71
2021/08/26 07:41:16;;;;;;;13.00;2.83;;;;;;;;;;4999264;28;20197;-70
2021/08/26 07:43:41;;;;;;;11.80;3.45;;;;;;;;;;5007909;28;20643;-71
2021/08/26 07:46:07;;;;;;;16.95;3.70;;;;;;;;;;5008076;28;20621;-71
2021/08/26 07:48:33;;;;;;;10.98;2.80;;;;;;;;;;5003657;28;20545;-72
2021/08/26 07:51:03;;;;;;;16.55;3.72;;;;;;;;;;5006982;28;20182;-70
2021/08/26 07:53:30;;;;;;;14.60;3.78;;;;;;;;;;5005248;28;20534;-71
2021/08/26 07:55:55;;;;;;;15.00;3.88;;;;;;;;;;5007264;28;20203;-70
2021/08/26 07:58:20;;;;;;;11.63;3.10;;;;;;;;;;4998858;28;20573;-71
2021/08/26 08:00:46;;;;;;;14.27;4.30;;;;;;;;;;5007629;28;20771;-70
2021/08/26 08:03:11;;;;;;;14.45;3.92;;;;;;;;;;4998087;28;20230;-73
2021/08/26 08:05:36;;;;;;;14.13;3.97;;;;;;;;;;5004628;28;20199;-67
2021/08/26 08:08:02;;;;;;;15.35;3.78;;;;;;;;;;5002309;28;20685;-72
2021/08/26 08:10:27;;;;;;;15.57;3.45;;;;;;;;;;5006986;28;20599;-74
2021/08/26 08:12:53;;;;;;;22.08;3.90;;;;;;;;;;5002005;28;20197;-74
2021/08/26 08:15:18;;;;;;;14.70;3.85;;;;;;;;;;5003543;28;20189;-70
2021/08/26 08:17:43;;;;;;;14.32;3.30;;;;;;;;;;5008365;28;20691;-72
2021/08/26 08:20:09;;;;;;;14.35;3.72;;;;;;;;;;4997602;28;20218;-72
2021/08/26 08:22:35;;;;;;;18.67;4.10;;;;;;;;;;5003700;28;20380;-75
2021/08/26 08:25:00;;;;;;;20.55;3.88;;;;;;;;;;4994798;28;20282;-74
2021/08/26 08:27:26;;;;;;;18.02;4.28;;;;;;;;;;5006196;28;20278;-73
2021/08/26 08:29:51;;;;;;;12.57;3.33;;;;;;;;;;4995839;28;20262;-74
2021/08/26 08:32:16;;;;;;;18.02;4.13;;;;;;;;;;5003367;28;20202;-71
2021/08/26 08:34:42;;;;;;;19.00;4.22;;;;;;;;;;4999073;28;20179;-71
2021/08/26 08:37:07;;;;;;;19.65;4.55;;;;;;;;;;5008544;28;20183;-71
2021/08/26 08:39:33;;;;;;;21.88;4.53;;;;;;;;;;5000763;28;20268;-72
2021/08/26 08:41:58;;;;;;;16.55;3.83;;;;;;;;;;5007561;28;20282;-72
2021/08/26 08:44:24;;;;;;;22.95;4.10;;;;;;;;;;4998498;28;20256;-73
2021/08/26 08:46:52;;;;;;;17.05;4.00;;;;;;;;;;5008309;28;20186;-73
2021/08/26 08:49:21;;;;;;;20.45;4.22;;;;;;;;;;5007755;28;20186;-72
2021/08/26 08:51:51;;;;;;;19.00;4.65;;;;;;;;;;5000303;28;20199;-71
2021/08/26 08:54:17;;;;;;;21.13;4.20;;;;;;;;;;5008463;28;20178;-71
2021/08/26 08:56:43;;;;;;;17.30;4.53;;;;;;;;;;4999925;28;20649;-71
2021/08/26 08:59:08;;;;;;;19.08;4.57;;;;;;;;;;5008570;28;20537;-71
2021/08/26 09:01:33;;;;;;;18.35;4.20;;;;;;;;;;4997464;28;20218;-70
2021/08/26 09:03:59;;;;;;;32.08;10.68;;;;;;;;;;5006851;28;20681;-74
2021/08/26 09:06:40;;;;;;;21.27;4.43;;;;;;;;;;4996817;28;20599;-73
2021/08/26 09:09:07;;;;;;;11.93;3.97;;;;;;;;;;5006333;28;20255;-71
2021/08/26 09:11:33;;;;;;;23.30;4.47;;;;;;;;;;4999445;28;20324;-73
2021/08/26 09:14:10;;;;;;;17.52;3.88;;;;;;;;;;5008239;28;20210;-73
2021/08/26 09:16:38;;;;;;;17.15;4.40;;;;;;;;;;4999382;28;20210;-70
2021/08/26 09:19:27;;;;;;;14.23;4.25;;;;;;;;;;5006005;28;20182;-71
2021/08/26 09:21:53;;;;;;;18.00;3.85;;;;;;;;;;5000288;28;20202;-74
2021/08/26 09:24:18;;;;;;;13.15;3.60;;;;;;;;;;5008252;28;20195;-74
2021/08/26 09:26:47;;;;;;;18.50;4.60;;;;;;;;;;4999704;28;21122;-74
2021/08/26 09:29:13;;;;;;;23.45;5.20;;;;;;;;;;5006356;28;20261;-72
2021/08/26 09:31:39;;;;;;;17.30;3.95;;;;;;;;;;4997313;28;20190;-73
2021/08/26 09:34:14;;;;;;;16.17;4.07;;;;;;;;;;5006103;28;20174;-72
2021/08/26 09:36:46;;;;;;;18.38;4.85;;;;;;;;;;5007202;28;20208;-74
2021/08/26 09:39:16;;;;;;;19.88;4.70;;;;;;;;;;4996481;28;20198;-74
2021/08/26 09:41:50;;;;;;;17.83;4.82;;;;;;;;;;5006247;28;20197;-75
2021/08/26 09:44:19;;;;;;;15.10;4.03;;;;;;;;;;4999388;28;20843;-71
2021/08/26 09:46:48;;;;;;;20.58;4.30;;;;;;;;;;5005867;28;20720;-71
2021/08/26 09:49:16;;;;;;;18.77;4.55;;;;;;;;;;4998680;28;20190;-71
2021/08/26 09:51:42;;;;;;;15.90;4.10;;;;;;;;;;5007320;28;20591;-71
2021/08/26 09:54:29;;;;;;;16.88;3.78;;;;;;;;;;5000136;28;20383;-70
2021/08/26 09:56:54;;;;;;;14.95;4.07;;;;;;;;;;5005727;28;20614;-71
2021/08/26 09:59:20;;;;;;;19.73;4.43;;;;;;;;;;5000886;28;20625;-70
2021/08/26 10:01:45;;;;;;;17.92;4.38;;;;;;;;;;5006163;28;20223;-70
2021/08/26 10:04:27;;;;;;;18.27;4.53;;;;;;;;;;4996428;28;20241;-71
2021/08/26 10:06:54;;;;;;;12.82;3.88;;;;;;;;;;5007638;28;20182;-70
2021/08/26 10:09:20;;;;;;;16.90;4.00;;;;;;;;;;4999300;28;20182;-71
2021/08/26 10:11:46;;;;;;;21.15;4.57;;;;;;;;;;5005695;28;20175;-72
2021/08/26 10:14:11;;;;;;;16.38;4.25;;;;;;;;;;4999467;28;20266;-71
2021/08/26 10:16:38;;;;;;;17.83;4.30;;;;;;;;;;5011212;28;20511;-71
2021/08/26 10:19:04;;;;;;;18.95;4.93;;;;;;;;;;5007425;28;20179;-71
2021/08/26 10:21:30;;;;;;;19.63;4.13;;;;;;;;;;4998782;28;20285;-71
2021/08/26 10:23:56;;;;;;;18.27;3.90;;;;;;;;;;5006502;28;20209;-71
2021/08/26 10:26:22;;;;;;;20.67;4.50;;;;;;;;;;4998385;28;20186;-70
2021/08/26 10:28:48;;;;;;;18.20;4.22;;;;;;;;;;5006702;28;20198;-70
2021/08/26 10:31:34;;;;;;;17.58;4.75;;;;;;;;;;4999019;28;20735;-72
2021/08/26 10:34:20;;;;;;;17.38;4.25;;;;;;;;;;5006752;28;20510;-73
2021/08/26 10:36:55;;;;;;;18.52;4.07;;;;;;;;;;4998467;28;20186;-74
2021/08/26 10:39:32;;;;;;;18.35;4.20;;;;;;;;;;5001345;28;20594;-73
2021/08/26 10:42:16;;;;;;;18.60;4.35;;;;;;;;;;4995621;28;20282;-72
2021/08/26 10:45:09;;;;;;;16.73;3.95;;;;;;;;;;5002295;28;20210;-73
2021/08/26 10:47:50;;;;;;;15.88;4.53;;;;;;;;;;4999217;28;20190;-69
2021/08/26 10:50:27;;;;;;;18.70;3.60;;;;;;;;;;5003741;28;20205;-74
2021/08/26 10:53:08;;;;;;;17.60;4.03;;;;;;;;;;4997409;28;20193;-71
2021/08/26 10:55:39;;;;;;;19.27;4.40;;;;;;;;;;5005053;28;20635;-73
2021/08/26 10:58:16;;;;;;;16.25;4.05;;;;;;;;;;5003017;28;20238;-73
2021/08/26 11:00:43;;;;;;;19.25;3.92;;;;;;;;;;5009539;28;20363;-70
2021/08/26 11:03:09;;;;;;;14.07;4.32;;;;;;;;;;5000986;28;20206;-70
2021/08/26 11:05:35;;;;;;;17.52;3.78;;;;;;;;;;5004044;28;20197;-71
2021/08/26 11:08:21;;;;;;;18.50;4.63;;;;;;;;;;5001834;28;20252;-69
2021/08/26 11:10:46;;;;;;;16.85;4.15;;;;;;;;;;5009414;28;20235;-73
2021/08/26 11:13:28;;;;;;;17.45;4.20;;;;;;;;;;4998757;28;20327;-70
2021/08/26 11:15:53;;;;;;;19.08;4.68;;;;;;;;;;5009412;28;20179;-70
2021/08/26 11:18:29;;;;;;;20.27;4.78;;;;;;;;;;5000123;28;20264;-69
2021/08/26 11:20:54;;;;;;;16.00;3.83;;;;;;;;;;5008271;28;20261;-69
2021/08/26 11:23:46;;;;;;;18.95;4.32;;;;;;;;;;4997441;28;20616;-69
2021/08/26 11:26:44;;;;;;;15.30;4.18;;;;;;;;;;5010432;28;20621;-70
2021/08/26 11:29:18;;;;;;;15.57;4.18;;;;;;;;;;5000901;28;20183;-71
2021/08/26 11:31:58;;;;;;;22.00;4.43;;;;;;;;;;5010474;28;20610;-69
2021/08/26 11:34:33;;;;;;;19.27;4.07;;;;;;;;;;5001943;28;20519;-70
2021/08/26 11:37:06;;;;;;;17.05;4.03;;;;;;;;;;5008002;28;20607;-68
2021/08/26 11:39:38;;;;;;;14.73;3.50;;;;;;;;;;5001614;28;20210;-73
2021/08/26 11:42:05;;;;;;;17.20;3.80;;;;;;;;;;5010629;28;20548;-72
2021/08/26 11:44:31;;;;;;;15.35;4.80;;;;;;;;;;4308098;28;10000875;-73
2021/08/26 11:46:57;;;;;;;17.75;4.40;;;;;;;;;;5003605;28;20199;-73
2021/08/26 11:49:33;;;;;;;18.95;4.05;;;;;;;;;;4998755;28;20186;-74
2021/08/26 11:52:06;;;;;;;12.38;3.50;;;;;;;;;;5002825;28;20194;-74
2021/08/26 11:54:39;;;;;;;16.38;4.45;;;;;;;;;;5009326;28;20188;-72
2021/08/26 11:57:05;;;;;;;13.73;3.80;;;;;;;;;;5005569;28;20244;-73
2021/08/26 11:59:35;;;;;;;14.52;4.03;;;;;;;;;;5000003;28;20678;-71
2021/08/26 12:02:25;;;;;;;13.85;3.35;;;;;;;;;;5006756;28;20290;-70
2021/08/26 12:04:56;;;;;;;17.60;4.10;;;;;;;;;;4995995;28;20280;-71
2021/08/26 12:07:22;;;;;;;16.08;3.92;;;;;;;;;;5001957;28;20191;-70
2021/08/26 12:09:49;;;;;;;18.90;3.70;;;;;;;;;;5000907;28;20240;-72
2021/08/26 12:12:14;;;;;;;14.20;4.07;;;;;;;;;;5009398;28;20193;-70
2021/08/26 12:14:40;;;;;;;16.50;4.15;;;;;;;;;;5008849;28;20187;-69
2021/08/26 12:17:20;;;;;;;16.75;4.03;;;;;;;;;;5000429;28;20186;-70
2021/08/26 12:19:48;;;;;;;23.48;5.10;;;;;;;;;;5008767;28;20401;-71
2021/08/26 12:22:16;;;;;;;16.10;3.55;;;;;;;;;;4999260;28;20643;-74
2021/08/26 12:24:57;;;;;;;13.68;4.25;;;;;;;;;;5007476;28;20206;-73
2021/08/26 12:27:24;;;;;;;23.52;4.68;;;;;;;;;;4997402;28;20563;-72
2021/08/26 12:29:51;;;;;;;22.38;5.43;;;;;;;;;;5006769;28;20187;-74
2021/08/26 12:32:34;;;;;;;25.83;5.63;;;;;;;;;;4998709;28;20194;-74
2021/08/26 12:35:15;;;;;;;19.73;5.53;;;;;;;;;;5006281;28;20227;-73
2021/08/26 12:37:53;;;;;;;22.48;6.40;;;;;;;;;;5000380;28;20260;-73
2021/08/26 12:40:19;;;;;;;25.60;6.45;;;;;;;;;;5005505;28;20226;-73
2021/08/26 12:43:05;;;;;;;21.52;5.25;;;;;;;;;;4996560;28;20230;-74
2021/08/26 12:45:35;;;;;;;20.25;5.07;;;;;;;;;;5008967;28;20193;-74
2021/08/26 12:48:27;;;;;;;23.75;5.63;;;;;;;;;;4995635;28;20590;-74
2021/08/26 12:51:19;;;;;;;24.63;5.68;;;;;;;;;;5007423;28;20603;-74
2021/08/26 12:53:47;;;;;;;21.00;4.63;;;;;;;;;;4999895;28;20194;-74
2021/08/26 12:56:20;;;;;;;17.33;4.45;;;;;;;;;;5007270;28;20183;-74
2021/08/26 12:59:06;;;;;;;18.63;4.38;;;;;;;;;;4997745;28;20211;-76
2021/08/26 13:01:32;;;;;;;17.05;3.80;;;;;;;;;;5009573;28;20595;-74
2021/08/26 13:04:00;;;;;;;21.60;5.40;;;;;;;;;;5000261;28;20202;-73
2021/08/26 13:06:38;;;;;;;23.88;5.47;;;;;;;;;;5009139;28;20643;-74
2021/08/26 13:09:24;;;;;;;25.10;4.97;;;;;;;;;;4997328;28;20310;-75
2021/08/26 13:11:49;;;;;;;16.48;4.50;;;;;;;;;;5009506;28;20187;-76
2021/08/26 13:14:15;;;;;;;17.65;4.35;;;;;;;;;;4998268;28;20233;-74
2021/08/26 13:16:40;;;;;;;17.27;3.78;;;;;;;;;;5009225;28;20189;-75
2021/08/26 13:19:06;;;;;;;12.15;3.58;;;;;;;;;;4997884;28;20199;-77
2021/08/26 13:21:31;;;;;;;14.18;4.20;;;;;;;;;;5008583;28;20175;-77
2021/08/26 13:23:57;;;;;;;13.90;3.83;;;;;;;;;;5000412;28;20245;-76
2021/08/26 13:26:23;;;;;;;15.75;3.63;;;;;;;;;;5011043;28;20273;-75
2021/08/26 13:28:48;;;;;;;15.40;3.97;;;;;;;;;;4997267;28;20308;-76
2021/08/26 13:31:14;;;;;;;14.25;3.70;;;;;;;;;;5004269;28;20189;-77
2021/08/26 13:33:40;;;;;;;14.07;4.10;;;;;;;;;;5003876;28;20195;-76
2021/08/26 13:36:06;;;;;;;15.43;3.92;;;;;;;;;;4998299;28;20190;-75
2021/08/26 13:38:31;;;;;;;15.35;3.50;;;;;;;;;;5004001;28;20187;-75
2021/08/26 13:40:57;;;;;;;13.75;3.58;;;;;;;;;;4991619;28;20277;-77
2021/08/26 13:43:22;;;;;;;12.48;3.42;;;;;;;;;;5000658;28;20511;-74
2021/08/26 13:45:47;;;;;;;11.45;3.60;;;;;;;;;;4995755;28;20191;-75
2021/08/26 13:48:13;;;;;;;12.05;3.22;;;;;;;;;;5003384;28;20183;-76
2021/08/26 13:50:38;;;;;;;15.38;3.65;;;;;;;;;;4651101;28;10000365;-69
2021/08/26 13:53:04;;;;;;;14.38;2.95;;;;;;;;;;5001488;28;20194;-77
2021/08/26 13:55:33;;;;;;;12.23;2.83;;;;;;;;;;4995642;28;20253;-77
2021/08/26 13:57:58;;;;;;;14.20;2.78;;;;;;;;;;5003021;28;20206;-75
2021/08/26 14:00:25;;;;;;;14.43;2.97;;;;;;;;;;4994972;28;20581;-77
2021/08/26 14:02:50;;;;;;;16.25;2.88;;;;;;;;;;4999422;28;20201;-76
2021/08/26 14:05:16;;;;;;;13.35;3.38;;;;;;;;;;5001158;28;20194;-76
2021/08/26 14:07:41;;;;;;;13.13;2.80;;;;;;;;;;4993990;28;20248;-77
2021/08/26 14:10:07;;;;;;;9.43;2.53;;;;;;;;;;5005278;28;20735;-77
2021/08/26 14:12:32;;;;;;;8.20;1.85;;;;;;;;;;4993311;28;20491;-76
2021/08/26 14:14:57;;;;;;;6.55;1.60;;;;;;;;;;5002938;28;20225;-76
2021/08/26 14:17:23;;;;;;;8.10;1.65;;;;;;;;;;4993027;28;20187;-76
2021/08/26 14:19:52;;;;;;;7.03;1.90;;;;;;;;;;5003896;28;20197;-77
2021/08/26 14:22:21;;;;;;;5.25;1.38;;;;;;;;;;4991148;28;20541;-76
2021/08/26 14:24:47;;;;;;;7.35;1.23;;;;;;;;;;5001424;28;20293;-76
2021/08/26 14:27:14;;;;;;;7.63;1.30;;;;;;;;;;4991408;28;20663;-75
2021/08/26 14:29:40;;;;;;;4.13;0.98;;;;;;;;;;4998614;28;20189;-75
2021/08/26 14:32:06;;;;;;;5.60;1.48;;;;;;;;;;4987683;28;20238;-76
2021/08/26 14:34:32;;;;;;;7.38;1.30;;;;;;;;;;4992340;28;20284;-76
2021/08/26 14:36:57;;;;;;;3.92;1.05;;;;;;;;;;4993897;28;20196;-77